Calvary, GA

8:53 AM EDT on September 02, 2015 (GMT -0400)
Jamieson | | Change Station
CLOSE
Current Station
Personal Weather Station
Location: Havana, FL
Elevation: 269 ft
Nearby Weather Stations

Elev 269 ft 30.68 °N, 84.45 °W | Updated 6 seconds ago

Overcast
Overcast
76.8 °F
Feels Like 77 °F
N
0.0
Wind Variable Wind from North
Gusts 0.0 mph

Today
High -- | Low -- °F
--% Chance of Precip.
Yesterday
High -- | Low -- °F
Precip. -- in
7:14 AM 7:59 PM
Waning Gibbous, 80% visible
Pressure 30.07 in
Visibility 10.0 miles
Clouds Mostly Cloudy 1000 ft
Overcast 1700 ft
Heat Index 77 °F
Dew Point 77 °F
Humidity 99%
Rainfall 0.00 in
Snow Depth Not available.
UV 0 out of 12
Pollen 8.00 out of 12
Air Quality Not available.
Flu Activity Not available.
SPECI KTLH 021244Z 01003KT 10SM BKN010 OVC017 26/23 A3007 RMK AO2 CIG 006V012 T02560233
Pressure 30.07 in
Visibility 10.0 miles
Clouds Mostly Cloudy 1000 ft
Overcast 1700 ft
Heat Index 77 °F
Dew Point 77 °F
Humidity 99%
Rainfall 0.00 in
Snow Depth Not available.
UV 0 out of 12
Pollen 8.00 out of 12
Air Quality Not available.
Flu Activity Not available.
SPECI KTLH 021244Z 01003KT 10SM BKN010 OVC017 26/23 A3007 RMK AO2 CIG 006V012 T02560233

10-Day Weather Forecast

×

Almanac

Astronomy

Sep. 02, 2015 Rise Set
Actual Time
Civil Twilight
Nautical Twilight
Astronomical Twilight
Moon
Length of Visible Light
Length of Day
Tomorrow will be .
, % of the Moon is Illuminated

Today's Extremes

State Highs State Lows

Community

WunderPhotos

Upload Photos

1,851,738 photos uploaded!

WunderBlogs® & News

Nearby

Air Quality

  Air Quality AQ Index Pollutant
Not available.

Snow Depth

Station Depth Elevation

Earthquake Activity

City Distance Mag. Time & Date
Minimum magnitude displayed is 2.5.

Coastal Water Temperatures

Place Temperature

Stations

Nearby Weather Stations

Station Location Temp. Windchill Dew Point Humidity Wind Precip. Elev Updated Type